FMMI/TNR METAR and TAF weather

Enter ICAO airport designator
Station Type Date Time Source
FMMI METAR 2019/12/11 17:30 UTC NOAA

FMMI 111730Z 06005KT 030V090 9999 TS FEW017CB BKN020 21/19 Q1018 TEMPO TSRA


Station Type Date Time Source
FMMI Decoded METAR 2019/12/11 17:30 UTC NOAA

Antananarivo / Ivato, Madagascar (FMMI) 18-48S 047-29E 1276M
Dec 11, 2019 - 12:30 PM EST / 2019.12.11 1730 UTC
Wind: from the ENE (060 degrees) at 6 MPH (5 KT) (direction variable):0
Visibility: greater than 7 mile(s):0
Sky conditions: mostly cloudy
Weather: thunder; Cumulonimbus clouds observed
Temperature: 69 F (21 C)
Dew Point: 66 F (19 C)
Relative Humidity: 88%
Pressure (altimeter): 30.06 in. Hg (1018 hPa)
ob: FMMI 111730Z 06005KT 030V090 9999 TS FEW017CB BKN020 21/19 Q1018 TEMPO TSRA
cycle: 17

Station Type Date Time Source
FMMI TAF 2019/12/11 18:03 UTC NOAA

FMMI 111700Z 1118/1224 28005KT 9999 SCT017CB BKN020 PROB40
TEMPO 1118/1202 4000 TSRA
BECMG 1121/1123 FEW017 BKN020
BECMG 1208/1210 SCT020CB SCT023 PROB30
TEMPO 1212/1220 VRB15KT 4000 TSRA

Example: see airport list